ヤクーツク の空港の天気 - METARとTAF

ヤクーツク空港 ( UEEE / YKS ) - ロシア ヤクーツク
飛行場実況気象(Metar)
観測時間11/18 02:30 YAKT (11/17 17:30 UTC)
風向・風速西 1m/s
視程10km以上
天気現象
なし
気温-21℃
湿度77%
気圧1019hPa
METARUEEE 171730Z 28001MPS CAVOK M21/M24 Q1019 R23L/490155 NOSIG RMK QFE755
過去の天気等 Google飛行場航空写真 Wunderground天気予報

過去48時間のMETAR

飛行場予報(TAF)
発表時間: 11/18 02:00 YAKT (11/17 17:00 UTC)
予報対象時間: 18日3時 YAKT ~ 19日9時 YAKT
風向・風速西 3m/s
視程10km以上
全天の4割程度の雲 雲底高度 610m
全天を覆う雲 雲底高度 2130m
18日3時 YAKT ~ 18日11時 YAKT に一時的に
視程300m
天気現象雪 氷霧
全天を覆う雲 鉛直視程 60m
18日11時 YAKT ~ 18日21時 YAKT に一時的に
視程3200m
天気現象弱い雪
全天の4割程度の雲 雲底高度 210m
全天の8割程度の雲 雲底高度 610m
全天を覆う雲 雲底高度 2130m
TAF UEEE 171700Z 1718/1824 27003MPS 9999 SCT020 OVC070
TEMPO 1718/1802 0300 SN FZFG VV002
TEMPO 1802/1812 3200 -SN SCT007 BKN020 OVC070